sensor_id;sensor_type;location;lat;lon;timestamp;P1;durP1;ratioP1;P2;durP2;ratioP2
1414;SDS011;702;49.466;11.086;2023-11-21T00:01:26;2.73;;;1.10;;
1414;SDS011;702;49.466;11.086;2023-11-21T00:03:53;3.70;;;1.90;;
1414;SDS011;702;49.466;11.086;2023-11-21T00:06:20;2.63;;;1.40;;
1414;SDS011;702;49.466;11.086;2023-11-21T00:08:49;2.00;;;1.60;;
1414;SDS011;702;49.466;11.086;2023-11-21T00:11:16;2.17;;;1.70;;
1414;SDS011;702;49.466;11.086;2023-11-21T00:13:43;1.97;;;1.20;;
1414;SDS011;702;49.466;11.086;2023-11-21T00:16:11;1.47;;;1.10;;
1414;SDS011;702;49.466;11.086;2023-11-21T00:18:38;1.90;;;1.27;;
1414;SDS011;702;49.466;11.086;2023-11-21T00:21:05;3.70;;;1.30;;
1414;SDS011;702;49.466;11.086;2023-11-21T00:23:34;4.17;;;1.70;;
1414;SDS011;702;49.466;11.086;2023-11-21T00:26:02;4.70;;;1.20;;
1414;SDS011;702;49.466;11.086;2023-11-21T00:28:30;2.63;;;1.33;;
1414;SDS011;702;49.466;11.086;2023-11-21T00:30:57;1.70;;;1.00;;
1414;SDS011;702;49.466;11.086;2023-11-21T00:33:24;1.90;;;1.43;;
1414;SDS011;702;49.466;11.086;2023-11-21T00:35:52;2.77;;;1.77;;
1414;SDS011;702;49.466;11.086;2023-11-21T00:38:20;3.07;;;2.00;;
1414;SDS011;702;49.466;11.086;2023-11-21T00:40:47;3.30;;;1.97;;
1414;SDS011;702;49.466;11.086;2023-11-21T00:43:15;4.20;;;2.37;;
1414;SDS011;702;49.466;11.086;2023-11-21T00:45:42;3.13;;;1.60;;
1414;SDS011;702;49.466;11.086;2023-11-21T00:48:09;2.13;;;1.80;;
1414;SDS011;702;49.466;11.086;2023-11-21T00:50:39;2.13;;;1.50;;
1414;SDS011;702;49.466;11.086;2023-11-21T00:53:06;6.63;;;1.83;;
1414;SDS011;702;49.466;11.086;2023-11-21T00:55:33;3.17;;;1.60;;
1414;SDS011;702;49.466;11.086;2023-11-21T00:58:01;2.20;;;1.93;;
1414;SDS011;702;49.466;11.086;2023-11-21T01:00:31;2.70;;;1.60;;
1414;SDS011;702;49.466;11.086;2023-11-21T01:02:58;4.20;;;1.67;;
1414;SDS011;702;49.466;11.086;2023-11-21T01:05:25;2.70;;;1.97;;
1414;SDS011;702;49.466;11.086;2023-11-21T01:07:53;2.97;;;2.10;;
1414;SDS011;702;49.466;11.086;2023-11-21T01:10:20;2.57;;;1.83;;
1414;SDS011;702;49.466;11.086;2023-11-21T01:12:47;2.50;;;2.17;;
1414;SDS011;702;49.466;11.086;2023-11-21T01:15:15;6.07;;;2.03;;
1414;SDS011;702;49.466;11.086;2023-11-21T01:17:43;5.17;;;2.40;;
1414;SDS011;702;49.466;11.086;2023-11-21T01:20:11;2.27;;;1.90;;
1414;SDS011;702;49.466;11.086;2023-11-21T01:22:38;3.53;;;2.10;;
1414;SDS011;702;49.466;11.086;2023-11-21T01:25:06;8.20;;;2.70;;
1414;SDS011;702;49.466;11.086;2023-11-21T01:27:34;4.90;;;2.20;;
1414;SDS011;702;49.466;11.086;2023-11-21T01:30:02;3.13;;;2.03;;
1414;SDS011;702;49.466;11.086;2023-11-21T01:32:33;2.90;;;2.10;;
1414;SDS011;702;49.466;11.086;2023-11-21T01:35:01;4.10;;;2.50;;
1414;SDS011;702;49.466;11.086;2023-11-21T01:37:30;3.00;;;2.50;;
1414;SDS011;702;49.466;11.086;2023-11-21T01:39:58;4.43;;;1.90;;
1414;SDS011;702;49.466;11.086;2023-11-21T01:42:26;5.00;;;1.93;;
1414;SDS011;702;49.466;11.086;2023-11-21T01:44:54;2.90;;;1.67;;
1414;SDS011;702;49.466;11.086;2023-11-21T01:47:22;3.90;;;1.93;;
1414;SDS011;702;49.466;11.086;2023-11-21T01:49:49;4.00;;;1.70;;
1414;SDS011;702;49.466;11.086;2023-11-21T01:52:17;4.03;;;2.07;;
1414;SDS011;702;49.466;11.086;2023-11-21T01:54:46;1.50;;;1.33;;
1414;SDS011;702;49.466;11.086;2023-11-21T01:57:13;5.37;;;2.80;;
1414;SDS011;702;49.466;11.086;2023-11-21T01:59:41;4.67;;;1.63;;
1414;SDS011;702;49.466;11.086;2023-11-21T02:02:11;3.70;;;1.90;;
1414;SDS011;702;49.466;11.086;2023-11-21T02:04:38;3.93;;;1.57;;
1414;SDS011;702;49.466;11.086;2023-11-21T02:07:06;4.30;;;1.97;;
1414;SDS011;702;49.466;11.086;2023-11-21T02:09:34;2.43;;;1.80;;
1414;SDS011;702;49.466;11.086;2023-11-21T02:12:04;2.07;;;1.67;;
1414;SDS011;702;49.466;11.086;2023-11-21T02:14:32;3.30;;;1.93;;
1414;SDS011;702;49.466;11.086;2023-11-21T02:16:59;5.43;;;2.63;;
1414;SDS011;702;49.466;11.086;2023-11-21T02:19:28;3.20;;;1.80;;
1414;SDS011;702;49.466;11.086;2023-11-21T02:21:57;4.13;;;1.73;;
1414;SDS011;702;49.466;11.086;2023-11-21T02:24:30;2.47;;;2.07;;
1414;SDS011;702;49.466;11.086;2023-11-21T02:26:57;2.90;;;1.80;;
1414;SDS011;702;49.466;11.086;2023-11-21T02:29:25;5.20;;;2.47;;
1414;SDS011;702;49.466;11.086;2023-11-21T02:31:53;3.80;;;1.80;;
1414;SDS011;702;49.466;11.086;2023-11-21T02:34:21;3.30;;;1.80;;
1414;SDS011;702;49.466;11.086;2023-11-21T02:36:50;1.50;;;1.40;;
1414;SDS011;702;49.466;11.086;2023-11-21T02:39:17;1.63;;;1.20;;
1414;SDS011;702;49.466;11.086;2023-11-21T02:41:48;2.03;;;1.37;;
1414;SDS011;702;49.466;11.086;2023-11-21T02:44:16;1.87;;;1.60;;
1414;SDS011;702;49.466;11.086;2023-11-21T02:46:43;2.20;;;1.53;;
1414;SDS011;702;49.466;11.086;2023-11-21T02:49:10;1.60;;;1.50;;
1414;SDS011;702;49.466;11.086;2023-11-21T02:51:38;4.20;;;1.40;;
1414;SDS011;702;49.466;11.086;2023-11-21T02:54:05;3.57;;;1.60;;
1414;SDS011;702;49.466;11.086;2023-11-21T02:56:33;3.17;;;1.50;;
1414;SDS011;702;49.466;11.086;2023-11-21T02:59:02;2.50;;;1.83;;
1414;SDS011;702;49.466;11.086;2023-11-21T03:01:30;3.43;;;1.60;;
1414;SDS011;702;49.466;11.086;2023-11-21T03:03:57;3.00;;;1.87;;
1414;SDS011;702;49.466;11.086;2023-11-21T03:06:24;4.37;;;1.93;;
1414;SDS011;702;49.466;11.086;2023-11-21T03:08:52;3.37;;;1.90;;
1414;SDS011;702;49.466;11.086;2023-11-21T03:11:19;2.97;;;1.80;;
1414;SDS011;702;49.466;11.086;2023-11-21T03:13:46;2.73;;;2.53;;
1414;SDS011;702;49.466;11.086;2023-11-21T03:16:15;2.33;;;2.13;;
1414;SDS011;702;49.466;11.086;2023-11-21T03:18:44;3.63;;;2.33;;
1414;SDS011;702;49.466;11.086;2023-11-21T03:21:11;3.37;;;2.30;;
1414;SDS011;702;49.466;11.086;2023-11-21T03:23:39;3.20;;;2.10;;
1414;SDS011;702;49.466;11.086;2023-11-21T03:26:06;2.40;;;2.20;;
1414;SDS011;702;49.466;11.086;2023-11-21T03:28:39;3.70;;;2.10;;
1414;SDS011;702;49.466;11.086;2023-11-21T03:31:07;3.97;;;2.43;;
1414;SDS011;702;49.466;11.086;2023-11-21T03:33:35;2.70;;;2.40;;
1414;SDS011;702;49.466;11.086;2023-11-21T03:36:03;2.47;;;2.00;;
1414;SDS011;702;49.466;11.086;2023-11-21T03:38:31;3.90;;;2.37;;
1414;SDS011;702;49.466;11.086;2023-11-21T03:40:58;3.83;;;2.70;;
1414;SDS011;702;49.466;11.086;2023-11-21T03:43:26;4.50;;;1.93;;
1414;SDS011;702;49.466;11.086;2023-11-21T03:45:53;3.53;;;2.47;;
1414;SDS011;702;49.466;11.086;2023-11-21T03:48:20;3.83;;;2.30;;
1414;SDS011;702;49.466;11.086;2023-11-21T03:50:49;3.67;;;2.67;;
1414;SDS011;702;49.466;11.086;2023-11-21T03:53:16;3.97;;;2.80;;
1414;SDS011;702;49.466;11.086;2023-11-21T03:55:43;3.50;;;2.63;;
1414;SDS011;702;49.466;11.086;2023-11-21T03:58:12;3.93;;;2.80;;
1414;SDS011;702;49.466;11.086;2023-11-21T04:00:39;6.40;;;3.30;;
1414;SDS011;702;49.466;11.086;2023-11-21T04:03:07;5.97;;;2.80;;
1414;SDS011;702;49.466;11.086;2023-11-21T04:05:34;3.80;;;2.70;;
1414;SDS011;702;49.466;11.086;2023-11-21T04:08:03;3.93;;;3.00;;
1414;SDS011;702;49.466;11.086;2023-11-21T04:10:30;3.10;;;2.57;;
1414;SDS011;702;49.466;11.086;2023-11-21T04:12:58;7.50;;;3.23;;
1414;SDS011;702;49.466;11.086;2023-11-21T04:15:25;3.80;;;2.90;;
1414;SDS011;702;49.466;11.086;2023-11-21T04:17:54;3.57;;;2.83;;
1414;SDS011;702;49.466;11.086;2023-11-21T04:20:21;5.10;;;3.17;;
1414;SDS011;702;49.466;11.086;2023-11-21T04:22:49;3.50;;;2.70;;
1414;SDS011;702;49.466;11.086;2023-11-21T04:25:20;3.33;;;2.43;;
1414;SDS011;702;49.466;11.086;2023-11-21T04:27:48;2.70;;;2.40;;
1414;SDS011;702;49.466;11.086;2023-11-21T04:30:15;2.30;;;1.97;;
1414;SDS011;702;49.466;11.086;2023-11-21T04:32:43;2.50;;;2.30;;
1414;SDS011;702;49.466;11.086;2023-11-21T04:35:10;3.57;;;1.70;;
1414;SDS011;702;49.466;11.086;2023-11-21T04:37:37;4.70;;;2.00;;
1414;SDS011;702;49.466;11.086;2023-11-21T04:40:05;2.10;;;1.70;;
1414;SDS011;702;49.466;11.086;2023-11-21T04:42:35;6.67;;;2.73;;
1414;SDS011;702;49.466;11.086;2023-11-21T04:45:03;3.90;;;1.87;;
1414;SDS011;702;49.466;11.086;2023-11-21T04:47:34;5.10;;;2.07;;
1414;SDS011;702;49.466;11.086;2023-11-21T04:50:02;3.50;;;2.53;;
1414;SDS011;702;49.466;11.086;2023-11-21T04:52:32;3.50;;;2.00;;
1414;SDS011;702;49.466;11.086;2023-11-21T04:55:00;3.83;;;2.63;;
1414;SDS011;702;49.466;11.086;2023-11-21T04:57:27;3.93;;;2.70;;
1414;SDS011;702;49.466;11.086;2023-11-21T04:59:56;5.90;;;2.80;;
1414;SDS011;702;49.466;11.086;2023-11-21T05:02:23;3.40;;;2.27;;
1414;SDS011;702;49.466;11.086;2023-11-21T05:04:50;4.10;;;2.47;;
1414;SDS011;702;49.466;11.086;2023-11-21T05:07:18;2.87;;;2.20;;
1414;SDS011;702;49.466;11.086;2023-11-21T05:09:46;6.43;;;2.50;;
1414;SDS011;702;49.466;11.086;2023-11-21T05:12:13;3.60;;;2.20;;
1414;SDS011;702;49.466;11.086;2023-11-21T05:14:41;3.50;;;2.27;;
1414;SDS011;702;49.466;11.086;2023-11-21T05:17:10;5.80;;;2.67;;
1414;SDS011;702;49.466;11.086;2023-11-21T05:19:37;4.40;;;2.83;;
1414;SDS011;702;49.466;11.086;2023-11-21T05:22:05;5.00;;;2.33;;
1414;SDS011;702;49.466;11.086;2023-11-21T05:24:34;4.37;;;2.30;;
1414;SDS011;702;49.466;11.086;2023-11-21T05:27:01;7.43;;;2.70;;
1414;SDS011;702;49.466;11.086;2023-11-21T05:29:28;3.20;;;2.13;;
1414;SDS011;702;49.466;11.086;2023-11-21T05:31:56;3.43;;;2.63;;
1414;SDS011;702;49.466;11.086;2023-11-21T05:34:25;4.23;;;2.93;;
1414;SDS011;702;49.466;11.086;2023-11-21T05:36:52;7.87;;;3.70;;
1414;SDS011;702;49.466;11.086;2023-11-21T05:39:20;7.60;;;3.70;;
1414;SDS011;702;49.466;11.086;2023-11-21T05:41:47;10.33;;;4.90;;
1414;SDS011;702;49.466;11.086;2023-11-21T05:44:14;7.57;;;4.60;;
1414;SDS011;702;49.466;11.086;2023-11-21T05:46:42;8.90;;;4.80;;
1414;SDS011;702;49.466;11.086;2023-11-21T05:49:09;6.93;;;5.17;;
1414;SDS011;702;49.466;11.086;2023-11-21T05:51:38;8.60;;;4.60;;
1414;SDS011;702;49.466;11.086;2023-11-21T05:54:05;7.67;;;4.30;;
1414;SDS011;702;49.466;11.086;2023-11-21T05:56:33;6.53;;;4.67;;
1414;SDS011;702;49.466;11.086;2023-11-21T05:59:00;7.07;;;4.30;;
1414;SDS011;702;49.466;11.086;2023-11-21T06:01:28;6.40;;;4.10;;
1414;SDS011;702;49.466;11.086;2023-11-21T06:03:55;5.93;;;3.70;;
1414;SDS011;702;49.466;11.086;2023-11-21T06:06:24;5.00;;;3.10;;
1414;SDS011;702;49.466;11.086;2023-11-21T06:08:53;5.00;;;3.33;;
1414;SDS011;702;49.466;11.086;2023-11-21T06:11:20;7.07;;;3.73;;
1414;SDS011;702;49.466;11.086;2023-11-21T06:13:48;5.10;;;3.70;;
1414;SDS011;702;49.466;11.086;2023-11-21T06:16:16;4.40;;;3.90;;
1414;SDS011;702;49.466;11.086;2023-11-21T06:18:44;6.07;;;3.80;;
1414;SDS011;702;49.466;11.086;2023-11-21T06:21:12;4.67;;;4.10;;
1414;SDS011;702;49.466;11.086;2023-11-21T06:23:41;5.57;;;4.37;;
1414;SDS011;702;49.466;11.086;2023-11-21T06:26:10;4.80;;;4.40;;
1414;SDS011;702;49.466;11.086;2023-11-21T06:28:38;7.97;;;4.50;;
1414;SDS011;702;49.466;11.086;2023-11-21T06:31:06;6.87;;;5.93;;
1414;SDS011;702;49.466;11.086;2023-11-21T06:33:33;7.33;;;4.80;;
1414;SDS011;702;49.466;11.086;2023-11-21T06:36:01;5.43;;;3.90;;
1414;SDS011;702;49.466;11.086;2023-11-21T06:38:28;6.93;;;4.30;;
1414;SDS011;702;49.466;11.086;2023-11-21T06:40:57;7.70;;;4.63;;
1414;SDS011;702;49.466;11.086;2023-11-21T06:43:29;7.97;;;4.53;;
1414;SDS011;702;49.466;11.086;2023-11-21T06:45:57;11.43;;;4.50;;
1414;SDS011;702;49.466;11.086;2023-11-21T06:48:25;7.07;;;4.10;;
1414;SDS011;702;49.466;11.086;2023-11-21T06:50:52;9.10;;;6.30;;
1414;SDS011;702;49.466;11.086;2023-11-21T06:53:19;8.93;;;5.60;;
1414;SDS011;702;49.466;11.086;2023-11-21T06:55:46;6.70;;;5.30;;
1414;SDS011;702;49.466;11.086;2023-11-21T06:58:13;6.57;;;5.67;;
1414;SDS011;702;49.466;11.086;2023-11-21T07:00:42;6.97;;;5.33;;
1414;SDS011;702;49.466;11.086;2023-11-21T07:03:12;5.00;;;4.47;;
1414;SDS011;702;49.466;11.086;2023-11-21T07:05:39;6.03;;;5.07;;
1414;SDS011;702;49.466;11.086;2023-11-21T07:08:06;6.83;;;5.13;;
1414;SDS011;702;49.466;11.086;2023-11-21T07:10:34;9.10;;;5.23;;
1414;SDS011;702;49.466;11.086;2023-11-21T07:13:01;5.20;;;4.70;;
1414;SDS011;702;49.466;11.086;2023-11-21T07:15:29;7.50;;;4.87;;
1414;SDS011;702;49.466;11.086;2023-11-21T07:17:57;7.40;;;4.83;;
1414;SDS011;702;49.466;11.086;2023-11-21T07:20:24;8.70;;;6.00;;
1414;SDS011;702;49.466;11.086;2023-11-21T07:22:52;7.70;;;5.73;;
1414;SDS011;702;49.466;11.086;2023-11-21T07:25:19;6.80;;;6.10;;
1414;SDS011;702;49.466;11.086;2023-11-21T07:27:47;7.53;;;5.20;;
1414;SDS011;702;49.466;11.086;2023-11-21T07:30:15;5.60;;;4.60;;
1414;SDS011;702;49.466;11.086;2023-11-21T07:32:42;6.13;;;5.03;;
1414;SDS011;702;49.466;11.086;2023-11-21T07:35:11;7.97;;;5.10;;
1414;SDS011;702;49.466;11.086;2023-11-21T07:37:38;6.03;;;5.43;;
1414;SDS011;702;49.466;11.086;2023-11-21T07:40:06;9.43;;;7.40;;
1414;SDS011;702;49.466;11.086;2023-11-21T07:42:35;9.00;;;5.00;;
1414;SDS011;702;49.466;11.086;2023-11-21T07:45:02;7.00;;;4.77;;
1414;SDS011;702;49.466;11.086;2023-11-21T07:47:30;6.10;;;5.17;;
1414;SDS011;702;49.466;11.086;2023-11-21T07:49:59;6.60;;;5.90;;
1414;SDS011;702;49.466;11.086;2023-11-21T07:52:29;7.20;;;5.53;;
1414;SDS011;702;49.466;11.086;2023-11-21T07:54:56;5.33;;;4.80;;
1414;SDS011;702;49.466;11.086;2023-11-21T07:57:24;6.40;;;5.20;;
1414;SDS011;702;49.466;11.086;2023-11-21T07:59:51;6.27;;;5.60;;
1414;SDS011;702;49.466;11.086;2023-11-21T08:02:19;8.37;;;5.13;;
1414;SDS011;702;49.466;11.086;2023-11-21T08:04:46;6.27;;;5.67;;
1414;SDS011;702;49.466;11.086;2023-11-21T08:07:14;7.20;;;5.70;;
1414;SDS011;702;49.466;11.086;2023-11-21T08:09:45;5.93;;;5.33;;
1414;SDS011;702;49.466;11.086;2023-11-21T08:12:14;6.93;;;5.67;;
1414;SDS011;702;49.466;11.086;2023-11-21T08:14:42;8.33;;;5.37;;
1414;SDS011;702;49.466;11.086;2023-11-21T08:17:09;6.87;;;5.70;;
1414;SDS011;702;49.466;11.086;2023-11-21T08:19:36;6.00;;;5.40;;
1414;SDS011;702;49.466;11.086;2023-11-21T08:22:04;6.30;;;5.23;;
1414;SDS011;702;49.466;11.086;2023-11-21T08:24:33;7.63;;;5.83;;
1414;SDS011;702;49.466;11.086;2023-11-21T08:27:02;8.40;;;6.70;;
1414;SDS011;702;49.466;11.086;2023-11-21T08:29:32;7.00;;;6.00;;
1414;SDS011;702;49.466;11.086;2023-11-21T08:32:00;7.60;;;6.27;;
1414;SDS011;702;49.466;11.086;2023-11-21T08:34:27;6.53;;;5.60;;
1414;SDS011;702;49.466;11.086;2023-11-21T08:36:54;8.30;;;5.83;;
1414;SDS011;702;49.466;11.086;2023-11-21T08:39:22;11.23;;;7.07;;
1414;SDS011;702;49.466;11.086;2023-11-21T08:41:50;7.10;;;6.40;;
1414;SDS011;702;49.466;11.086;2023-11-21T08:44:18;7.70;;;6.73;;
1414;SDS011;702;49.466;11.086;2023-11-21T08:46:47;8.40;;;6.97;;
1414;SDS011;702;49.466;11.086;2023-11-21T08:49:14;8.60;;;6.90;;
1414;SDS011;702;49.466;11.086;2023-11-21T08:51:44;8.20;;;6.83;;
1414;SDS011;702;49.466;11.086;2023-11-21T08:54:11;7.43;;;6.70;;
1414;SDS011;702;49.466;11.086;2023-11-21T08:56:39;8.10;;;7.30;;
1414;SDS011;702;49.466;11.086;2023-11-21T08:59:07;6.63;;;5.97;;
1414;SDS011;702;49.466;11.086;2023-11-21T09:01:35;9.73;;;8.43;;
1414;SDS011;702;49.466;11.086;2023-11-21T09:04:02;9.53;;;7.93;;
1414;SDS011;702;49.466;11.086;2023-11-21T09:06:30;8.83;;;7.20;;
1414;SDS011;702;49.466;11.086;2023-11-21T09:08:57;9.47;;;6.77;;
1414;SDS011;702;49.466;11.086;2023-11-21T09:11:25;9.60;;;7.43;;
1414;SDS011;702;49.466;11.086;2023-11-21T09:13:58;9.77;;;8.60;;
1414;SDS011;702;49.466;11.086;2023-11-21T09:16:26;7.40;;;6.70;;
1414;SDS011;702;49.466;11.086;2023-11-21T09:18:54;9.40;;;6.83;;
1414;SDS011;702;49.466;11.086;2023-11-21T09:21:22;8.73;;;7.30;;
1414;SDS011;702;49.466;11.086;2023-11-21T09:23:50;8.20;;;7.20;;
1414;SDS011;702;49.466;11.086;2023-11-21T09:26:17;7.60;;;6.80;;
1414;SDS011;702;49.466;11.086;2023-11-21T09:28:45;8.10;;;7.40;;
1414;SDS011;702;49.466;11.086;2023-11-21T09:31:13;8.50;;;6.97;;
1414;SDS011;702;49.466;11.086;2023-11-21T09:33:41;7.00;;;6.30;;
1414;SDS011;702;49.466;11.086;2023-11-21T09:36:12;11.23;;;7.17;;
1414;SDS011;702;49.466;11.086;2023-11-21T09:38:40;7.13;;;6.50;;
1414;SDS011;702;49.466;11.086;2023-11-21T09:41:09;6.90;;;6.20;;
1414;SDS011;702;49.466;11.086;2023-11-21T09:43:48;10.37;;;6.87;;
1414;SDS011;702;49.466;11.086;2023-11-21T09:46:21;7.20;;;6.50;;
1414;SDS011;702;49.466;11.086;2023-11-21T09:48:53;8.33;;;7.53;;
1414;SDS011;702;49.466;11.086;2023-11-21T09:51:23;11.10;;;6.67;;
1414;SDS011;702;49.466;11.086;2023-11-21T09:53:55;8.10;;;7.30;;
1414;SDS011;702;49.466;11.086;2023-11-21T09:56:26;9.20;;;6.33;;
1414;SDS011;702;49.466;11.086;2023-11-21T09:58:55;6.87;;;6.10;;
1414;SDS011;702;49.466;11.086;2023-11-21T10:01:24;8.90;;;7.40;;
1414;SDS011;702;49.466;11.086;2023-11-21T10:03:53;6.57;;;5.97;;
1414;SDS011;702;49.466;11.086;2023-11-21T10:06:21;5.90;;;5.10;;
1414;SDS011;702;49.466;11.086;2023-11-21T10:08:52;7.83;;;5.90;;
1414;SDS011;702;49.466;11.086;2023-11-21T10:11:22;6.73;;;5.63;;
1414;SDS011;702;49.466;11.086;2023-11-21T10:13:52;8.73;;;6.20;;
1414;SDS011;702;49.466;11.086;2023-11-21T10:16:22;7.73;;;6.10;;
1414;SDS011;702;49.466;11.086;2023-11-21T10:18:53;6.60;;;6.00;;
1414;SDS011;702;49.466;11.086;2023-11-21T10:21:21;4.10;;;3.80;;
1414;SDS011;702;49.466;11.086;2023-11-21T10:23:50;4.93;;;4.40;;
1414;SDS011;702;49.466;11.086;2023-11-21T10:26:19;4.97;;;4.47;;
1414;SDS011;702;49.466;11.086;2023-11-21T10:28:55;5.60;;;5.00;;
1414;SDS011;702;49.466;11.086;2023-11-21T10:31:24;4.83;;;4.43;;
1414;SDS011;702;49.466;11.086;2023-11-21T10:33:53;4.97;;;4.30;;
1414;SDS011;702;49.466;11.086;2023-11-21T10:36:26;5.30;;;4.13;;
1414;SDS011;702;49.466;11.086;2023-11-21T10:38:55;5.10;;;4.60;;
1414;SDS011;702;49.466;11.086;2023-11-21T10:41:25;7.13;;;5.37;;
1414;SDS011;702;49.466;11.086;2023-11-21T10:43:53;5.70;;;5.20;;
1414;SDS011;702;49.466;11.086;2023-11-21T10:46:22;7.03;;;5.03;;
1414;SDS011;702;49.466;11.086;2023-11-21T10:48:52;5.97;;;4.30;;
1414;SDS011;702;49.466;11.086;2023-11-21T10:51:21;4.30;;;3.90;;
1414;SDS011;702;49.466;11.086;2023-11-21T10:53:50;4.90;;;4.40;;
1414;SDS011;702;49.466;11.086;2023-11-21T10:56:18;4.17;;;3.50;;
1414;SDS011;702;49.466;11.086;2023-11-21T10:58:50;6.50;;;3.90;;
1414;SDS011;702;49.466;11.086;2023-11-21T11:01:17;5.70;;;4.60;;
1414;SDS011;702;49.466;11.086;2023-11-21T11:03:47;5.30;;;4.30;;
1414;SDS011;702;49.466;11.086;2023-11-21T11:06:14;4.87;;;4.27;;
1414;SDS011;702;49.466;11.086;2023-11-21T11:08:42;5.50;;;5.00;;
1414;SDS011;702;49.466;11.086;2023-11-21T11:11:12;5.43;;;4.07;;
1414;SDS011;702;49.466;11.086;2023-11-21T11:13:43;4.30;;;3.30;;
1414;SDS011;702;49.466;11.086;2023-11-21T11:16:11;5.93;;;3.80;;
1414;SDS011;702;49.466;11.086;2023-11-21T11:18:42;3.43;;;3.13;;
1414;SDS011;702;49.466;11.086;2023-11-21T11:21:15;3.60;;;3.30;;
1414;SDS011;702;49.466;11.086;2023-11-21T11:23:58;4.57;;;3.20;;
1414;SDS011;702;49.466;11.086;2023-11-21T11:26:44;3.60;;;3.23;;
1414;SDS011;702;49.466;11.086;2023-11-21T11:29:19;3.83;;;3.07;;
1414;SDS011;702;49.466;11.086;2023-11-21T11:32:00;3.60;;;3.30;;
1414;SDS011;702;49.466;11.086;2023-11-21T11:34:36;5.37;;;3.90;;
1414;SDS011;702;49.466;11.086;2023-11-21T11:37:15;4.23;;;3.47;;
1414;SDS011;702;49.466;11.086;2023-11-21T11:39:43;4.27;;;3.90;;
1414;SDS011;702;49.466;11.086;2023-11-21T11:42:13;3.50;;;3.20;;
1414;SDS011;702;49.466;11.086;2023-11-21T11:44:46;4.10;;;3.20;;
1414;SDS011;702;49.466;11.086;2023-11-21T11:47:20;4.90;;;3.40;;
1414;SDS011;702;49.466;11.086;2023-11-21T11:49:58;3.83;;;3.33;;
1414;SDS011;702;49.466;11.086;2023-11-21T11:52:35;4.37;;;3.47;;
1414;SDS011;702;49.466;11.086;2023-11-21T11:55:08;3.10;;;2.90;;
1414;SDS011;702;49.466;11.086;2023-11-21T11:57:38;3.33;;;3.00;;
1414;SDS011;702;49.466;11.086;2023-11-21T12:00:07;4.17;;;3.20;;
1414;SDS011;702;49.466;11.086;2023-11-21T12:02:37;2.57;;;2.37;;
1414;SDS011;702;49.466;11.086;2023-11-21T12:05:09;3.87;;;3.57;;
1414;SDS011;702;49.466;11.086;2023-11-21T12:07:45;5.07;;;4.10;;
1414;SDS011;702;49.466;11.086;2023-11-21T12:10:14;6.40;;;5.03;;
1414;SDS011;702;49.466;11.086;2023-11-21T12:12:45;5.30;;;4.17;;
1414;SDS011;702;49.466;11.086;2023-11-21T12:15:13;5.07;;;4.53;;
1414;SDS011;702;49.466;11.086;2023-11-21T12:17:42;5.00;;;4.57;;
1414;SDS011;702;49.466;11.086;2023-11-21T12:20:10;5.20;;;3.97;;
1414;SDS011;702;49.466;11.086;2023-11-21T12:22:44;5.00;;;4.50;;
1414;SDS011;702;49.466;11.086;2023-11-21T12:25:14;4.40;;;4.00;;
1414;SDS011;702;49.466;11.086;2023-11-21T12:27:45;4.63;;;4.23;;
1414;SDS011;702;49.466;11.086;2023-11-21T12:30:15;4.87;;;4.40;;
1414;SDS011;702;49.466;11.086;2023-11-21T12:32:44;5.43;;;4.90;;
1414;SDS011;702;49.466;11.086;2023-11-21T12:35:14;7.17;;;4.70;;
1414;SDS011;702;49.466;11.086;2023-11-21T12:37:45;6.80;;;5.77;;
1414;SDS011;702;49.466;11.086;2023-11-21T12:40:13;5.70;;;5.10;;
1414;SDS011;702;49.466;11.086;2023-11-21T12:42:43;6.17;;;5.50;;
1414;SDS011;702;49.466;11.086;2023-11-21T12:45:18;7.13;;;5.40;;
1414;SDS011;702;49.466;11.086;2023-11-21T12:47:47;6.43;;;5.73;;
1414;SDS011;702;49.466;11.086;2023-11-21T12:50:18;6.30;;;5.70;;
1414;SDS011;702;49.466;11.086;2023-11-21T12:52:49;5.70;;;5.07;;
1414;SDS011;702;49.466;11.086;2023-11-21T12:55:19;5.40;;;4.70;;
1414;SDS011;702;49.466;11.086;2023-11-21T12:57:51;6.30;;;5.67;;
1414;SDS011;702;49.466;11.086;2023-11-21T13:00:27;7.60;;;5.00;;
1414;SDS011;702;49.466;11.086;2023-11-21T13:02:59;5.23;;;4.73;;
1414;SDS011;702;49.466;11.086;2023-11-21T13:05:26;6.00;;;5.40;;
1414;SDS011;702;49.466;11.086;2023-11-21T13:07:56;5.70;;;4.77;;
1414;SDS011;702;49.466;11.086;2023-11-21T13:10:27;5.80;;;5.23;;
1414;SDS011;702;49.466;11.086;2023-11-21T13:12:58;5.60;;;4.97;;
1414;SDS011;702;49.466;11.086;2023-11-21T13:15:26;6.80;;;5.33;;
1414;SDS011;702;49.466;11.086;2023-11-21T13:17:56;6.40;;;5.30;;
1414;SDS011;702;49.466;11.086;2023-11-21T13:20:24;6.30;;;4.63;;
1414;SDS011;702;49.466;11.086;2023-11-21T13:22:52;5.43;;;4.90;;
1414;SDS011;702;49.466;11.086;2023-11-21T13:25:22;5.43;;;4.93;;
1414;SDS011;702;49.466;11.086;2023-11-21T13:27:53;6.97;;;5.20;;
1414;SDS011;702;49.466;11.086;2023-11-21T13:30:22;5.33;;;4.83;;
1414;SDS011;702;49.466;11.086;2023-11-21T13:32:52;4.43;;;4.03;;
1414;SDS011;702;49.466;11.086;2023-11-21T13:35:22;7.33;;;4.50;;
1414;SDS011;702;49.466;11.086;2023-11-21T13:37:56;6.70;;;4.70;;
1414;SDS011;702;49.466;11.086;2023-11-21T13:40:25;5.63;;;4.97;;
1414;SDS011;702;49.466;11.086;2023-11-21T13:42:53;4.83;;;4.23;;
1414;SDS011;702;49.466;11.086;2023-11-21T13:45:24;3.83;;;3.50;;
1414;SDS011;702;49.466;11.086;2023-11-21T13:47:53;4.40;;;3.90;;
1414;SDS011;702;49.466;11.086;2023-11-21T13:50:23;5.77;;;3.70;;
1414;SDS011;702;49.466;11.086;2023-11-21T13:52:55;3.67;;;3.20;;
1414;SDS011;702;49.466;11.086;2023-11-21T13:55:23;3.70;;;3.40;;
1414;SDS011;702;49.466;11.086;2023-11-21T13:57:51;2.83;;;2.60;;
1414;SDS011;702;49.466;11.086;2023-11-21T14:00:18;3.60;;;3.00;;
1414;SDS011;702;49.466;11.086;2023-11-21T14:03:01;3.83;;;2.90;;
1414;SDS011;702;49.466;11.086;2023-11-21T14:05:33;5.63;;;3.53;;
1414;SDS011;702;49.466;11.086;2023-11-21T14:08:02;3.00;;;2.70;;
1414;SDS011;702;49.466;11.086;2023-11-21T14:10:30;4.90;;;2.63;;
1414;SDS011;702;49.466;11.086;2023-11-21T14:13:05;4.10;;;2.87;;
1414;SDS011;702;49.466;11.086;2023-11-21T14:15:32;3.97;;;3.23;;
1414;SDS011;702;49.466;11.086;2023-11-21T14:18:05;5.33;;;3.60;;
1414;SDS011;702;49.466;11.086;2023-11-21T14:20:35;5.10;;;3.40;;
1414;SDS011;702;49.466;11.086;2023-11-21T14:23:05;5.47;;;3.00;;
1414;SDS011;702;49.466;11.086;2023-11-21T14:25:32;3.20;;;2.90;;
1414;SDS011;702;49.466;11.086;2023-11-21T14:28:02;3.83;;;3.10;;
1414;SDS011;702;49.466;11.086;2023-11-21T14:30:31;3.47;;;3.03;;
1414;SDS011;702;49.466;11.086;2023-11-21T14:33:01;4.00;;;2.77;;
1414;SDS011;702;49.466;11.086;2023-11-21T14:35:30;5.77;;;3.50;;
1414;SDS011;702;49.466;11.086;2023-11-21T14:37:58;3.53;;;2.77;;
1414;SDS011;702;49.466;11.086;2023-11-21T14:40:27;3.63;;;3.00;;
1414;SDS011;702;49.466;11.086;2023-11-21T14:42:59;4.27;;;2.80;;
1414;SDS011;702;49.466;11.086;2023-11-21T14:45:26;3.37;;;2.90;;
1414;SDS011;702;49.466;11.086;2023-11-21T14:47:55;4.30;;;2.80;;
1414;SDS011;702;49.466;11.086;2023-11-21T14:50:33;5.17;;;3.20;;
1414;SDS011;702;49.466;11.086;2023-11-21T14:53:17;3.73;;;3.10;;
1414;SDS011;702;49.466;11.086;2023-11-21T14:56:03;3.47;;;3.10;;
1414;SDS011;702;49.466;11.086;2023-11-21T14:58:32;3.63;;;3.30;;
1414;SDS011;702;49.466;11.086;2023-11-21T15:00:59;5.70;;;3.30;;
1414;SDS011;702;49.466;11.086;2023-11-21T15:03:26;3.10;;;2.90;;
1414;SDS011;702;49.466;11.086;2023-11-21T15:06:10;3.47;;;3.17;;
1414;SDS011;702;49.466;11.086;2023-11-21T15:08:52;5.20;;;3.73;;
1414;SDS011;702;49.466;11.086;2023-11-21T15:11:37;4.20;;;3.40;;
1414;SDS011;702;49.466;11.086;2023-11-21T15:14:06;5.70;;;3.53;;
1414;SDS011;702;49.466;11.086;2023-11-21T15:16:34;3.80;;;3.33;;
1414;SDS011;702;49.466;11.086;2023-11-21T15:19:05;4.50;;;3.43;;
1414;SDS011;702;49.466;11.086;2023-11-21T15:21:36;4.77;;;3.40;;
1414;SDS011;702;49.466;11.086;2023-11-21T15:24:03;5.63;;;3.63;;
1414;SDS011;702;49.466;11.086;2023-11-21T15:26:31;5.57;;;4.80;;